createdAt,value
2023-12-30T00:00:17.853Z,1.92
2023-12-30T00:02:49.937Z,5.35
2023-12-30T00:05:17.915Z,2.65
2023-12-30T00:07:45.585Z,2.42
2023-12-30T00:10:12.923Z,2.13
2023-12-30T00:12:40.289Z,2.00
2023-12-30T00:15:08.364Z,1.73
2023-12-30T00:17:35.533Z,1.75
2023-12-30T00:20:02.828Z,1.67
2023-12-30T00:22:30.034Z,2.53
2023-12-30T00:24:57.237Z,2.03
2023-12-30T00:27:24.356Z,1.80
2023-12-30T00:29:51.630Z,1.73
2023-12-30T00:32:18.755Z,1.20
2023-12-30T00:34:45.886Z,1.65
2023-12-30T00:37:20.426Z,1.83
2023-12-30T00:39:48.554Z,2.28
2023-12-30T00:42:15.734Z,2.35
2023-12-30T00:44:43.226Z,1.73
2023-12-30T00:47:10.416Z,1.67
2023-12-30T00:49:37.576Z,1.20
2023-12-30T00:52:05.035Z,2.17
2023-12-30T00:54:38.207Z,1.60
2023-12-30T00:57:11.197Z,2.10
2023-12-30T00:59:38.346Z,1.50
2023-12-30T01:02:05.538Z,1.30
2023-12-30T01:04:32.781Z,1.35
2023-12-30T01:06:59.944Z,2.10
2023-12-30T01:09:27.181Z,1.25
2023-12-30T01:11:54.414Z,1.60
2023-12-30T01:14:21.531Z,2.00
2023-12-30T01:16:48.796Z,1.27
2023-12-30T01:19:15.922Z,1.65
2023-12-30T01:21:43.099Z,2.15
2023-12-30T01:24:11.359Z,1.63
2023-12-30T01:26:39.829Z,1.65
2023-12-30T01:29:06.923Z,1.73
2023-12-30T01:31:35.626Z,2.08
2023-12-30T01:34:02.925Z,1.75
2023-12-30T01:36:30.077Z,2.50
2023-12-30T01:38:57.239Z,2.05
2023-12-30T01:41:24.393Z,2.00
2023-12-30T01:43:51.544Z,2.45
2023-12-30T01:46:19.175Z,2.60
2023-12-30T01:48:46.633Z,1.90
2023-12-30T01:51:24.450Z,2.08
2023-12-30T01:53:54.215Z,2.42
2023-12-30T01:56:23.690Z,1.45
2023-12-30T01:58:52.920Z,1.40
2023-12-30T02:01:22.752Z,1.70
2023-12-30T02:03:50.185Z,1.30
2023-12-30T02:06:17.345Z,1.85
2023-12-30T02:08:44.811Z,1.40
2023-12-30T02:11:13.118Z,1.30
2023-12-30T02:13:44.003Z,1.65
2023-12-30T02:16:12.325Z,1.63
2023-12-30T02:18:40.137Z,1.52
2023-12-30T02:21:07.881Z,2.10
2023-12-30T02:23:35.497Z,1.25
2023-12-30T02:26:02.749Z,1.48
2023-12-30T02:28:30.015Z,1.02
2023-12-30T02:30:57.394Z,3.45
2023-12-30T02:33:24.817Z,1.33
2023-12-30T02:35:53.265Z,1.30
2023-12-30T02:38:20.500Z,1.35
2023-12-30T02:40:47.877Z,1.30
2023-12-30T02:43:15.105Z,1.52
2023-12-30T02:45:42.488Z,1.10
2023-12-30T02:48:09.716Z,1.25
2023-12-30T02:50:37.017Z,1.25
2023-12-30T02:53:04.459Z,1.02
2023-12-30T02:55:31.664Z,1.02
2023-12-30T02:57:58.851Z,0.85
2023-12-30T03:00:26.012Z,1.10
2023-12-30T03:02:53.136Z,1.00
2023-12-30T03:05:20.411Z,1.08
2023-12-30T03:07:47.683Z,1.20
2023-12-30T03:10:15.074Z,1.15
2023-12-30T03:12:42.399Z,0.90
2023-12-30T03:15:10.169Z,1.23
2023-12-30T03:17:37.618Z,1.10
2023-12-30T03:20:06.047Z,1.13
2023-12-30T03:22:33.918Z,1.08
2023-12-30T03:25:01.389Z,0.77
2023-12-30T03:27:28.633Z,0.95
2023-12-30T03:29:55.773Z,1.15
2023-12-30T03:32:23.010Z,1.45
2023-12-30T03:34:50.309Z,1.13
2023-12-30T03:37:17.508Z,1.08
2023-12-30T03:39:44.641Z,1.52
2023-12-30T03:42:12.402Z,0.93
2023-12-30T03:44:39.634Z,1.23
2023-12-30T03:47:06.741Z,1.30
2023-12-30T03:49:34.273Z,1.02
2023-12-30T03:52:01.509Z,0.95
2023-12-30T03:54:28.555Z,0.93
2023-12-30T03:56:55.974Z,0.90
2023-12-30T03:59:23.062Z,3.10
2023-12-30T04:01:50.618Z,1.10
2023-12-30T04:04:17.844Z,0.95
2023-12-30T04:06:45.030Z,1.00
2023-12-30T04:09:12.313Z,1.33
2023-12-30T04:11:39.412Z,0.98
2023-12-30T04:14:06.642Z,1.25
2023-12-30T04:16:33.741Z,0.80
2023-12-30T04:19:01.001Z,1.25
2023-12-30T04:21:28.180Z,1.30
2023-12-30T04:23:55.236Z,1.25
2023-12-30T04:26:22.359Z,1.02
2023-12-30T04:28:49.473Z,1.42
2023-12-30T04:31:16.778Z,1.45
2023-12-30T04:33:44.110Z,1.67
2023-12-30T04:36:11.337Z,1.25
2023-12-30T04:38:38.424Z,2.67
2023-12-30T04:41:05.825Z,1.10
2023-12-30T04:43:33.048Z,1.10
2023-12-30T04:46:00.428Z,1.50
2023-12-30T04:48:27.671Z,1.40
2023-12-30T04:50:54.787Z,1.23
2023-12-30T04:53:22.327Z,2.10
2023-12-30T04:55:49.381Z,1.50
2023-12-30T04:58:17.418Z,1.45
2023-12-30T05:00:44.567Z,1.30
2023-12-30T05:03:11.725Z,1.50
2023-12-30T05:05:39.027Z,1.60
2023-12-30T05:08:07.763Z,2.10
2023-12-30T05:10:35.595Z,2.42
2023-12-30T05:13:03.203Z,1.67
2023-12-30T05:15:30.740Z,2.67
2023-12-30T05:17:58.066Z,1.83
2023-12-30T05:20:25.424Z,2.42
2023-12-30T05:22:52.556Z,1.10
2023-12-30T05:25:19.885Z,1.00
2023-12-30T05:27:47.118Z,1.85
2023-12-30T05:30:14.372Z,1.73
2023-12-30T05:32:41.537Z,1.67
2023-12-30T05:35:09.034Z,0.95
2023-12-30T05:37:36.614Z,0.90
2023-12-30T05:40:07.406Z,1.33
2023-12-30T05:42:34.950Z,1.13
2023-12-30T05:45:02.181Z,1.15
2023-12-30T05:47:29.343Z,1.58
2023-12-30T05:49:56.527Z,1.10
2023-12-30T05:52:23.716Z,1.33
2023-12-30T05:54:50.911Z,0.98
2023-12-30T05:57:19.091Z,1.35
2023-12-30T05:59:46.490Z,2.03
2023-12-30T06:02:13.646Z,1.17
2023-12-30T06:04:42.030Z,0.93
2023-12-30T06:07:09.710Z,1.10
2023-12-30T06:09:36.868Z,1.15
2023-12-30T06:12:04.120Z,1.23
2023-12-30T06:14:31.327Z,1.25
2023-12-30T06:16:58.462Z,1.50
2023-12-30T06:19:25.689Z,1.30
2023-12-30T06:21:52.934Z,1.35
2023-12-30T06:24:20.119Z,1.40
2023-12-30T06:26:47.142Z,1.40
2023-12-30T06:29:14.808Z,1.27
2023-12-30T06:31:43.247Z,1.30
2023-12-30T06:34:13.501Z,1.10
2023-12-30T06:36:44.595Z,1.80
2023-12-30T06:39:17.272Z,1.25
2023-12-30T06:41:44.425Z,1.20
2023-12-30T06:44:11.797Z,1.67
2023-12-30T06:46:38.989Z,1.20
2023-12-30T06:49:06.225Z,1.20
2023-12-30T06:51:33.307Z,1.95
2023-12-30T06:54:00.475Z,1.83
2023-12-30T06:56:27.620Z,1.23
2023-12-30T06:58:54.785Z,1.25
2023-12-30T07:01:22.138Z,1.63
2023-12-30T07:03:49.479Z,1.77
2023-12-30T07:06:16.675Z,1.75
2023-12-30T07:08:43.853Z,1.67
2023-12-30T07:11:11.126Z,1.15
2023-12-30T07:13:38.459Z,3.08
2023-12-30T07:16:06.122Z,1.40
2023-12-30T07:18:33.316Z,1.40
2023-12-30T07:21:00.456Z,6.18
2023-12-30T07:23:27.572Z,2.35
2023-12-30T07:25:54.707Z,4.85
2023-12-30T07:28:21.822Z,1.98
2023-12-30T07:30:49.068Z,3.70
2023-12-30T07:33:16.524Z,2.90
2023-12-30T07:35:43.875Z,8.77
2023-12-30T07:38:11.133Z,11.27
2023-12-30T07:40:38.379Z,7.20
2023-12-30T07:43:05.887Z,17.58
2023-12-30T07:45:33.444Z,10.15
2023-12-30T07:48:00.620Z,5.75
2023-12-30T07:50:27.799Z,4.05
2023-12-30T07:52:54.890Z,4.03
2023-12-30T07:55:22.045Z,5.05
2023-12-30T07:57:49.241Z,5.43
2023-12-30T08:00:16.702Z,3.78
2023-12-30T08:02:45.566Z,2.90
2023-12-30T08:05:12.890Z,1.60
2023-12-30T08:07:40.294Z,6.80
2023-12-30T08:10:16.836Z,2.67
2023-12-30T08:13:06.990Z,6.30
2023-12-30T08:15:35.577Z,14.48
2023-12-30T08:18:06.773Z,3.13
2023-12-30T08:20:55.001Z,8.98
2023-12-30T08:23:23.410Z,5.00
2023-12-30T08:25:52.326Z,10.55
2023-12-30T08:28:23.528Z,3.65
2023-12-30T08:30:55.210Z,7.32
2023-12-30T08:33:24.093Z,12.45
2023-12-30T08:35:54.473Z,7.30
2023-12-30T08:38:23.132Z,3.28
2023-12-30T08:40:50.893Z,6.22
2023-12-30T08:43:18.618Z,3.92
2023-12-30T08:45:46.157Z,3.17
2023-12-30T08:48:13.481Z,3.42
2023-12-30T08:50:41.105Z,3.35
2023-12-30T08:53:08.284Z,3.60
2023-12-30T08:55:35.580Z,3.60
2023-12-30T08:58:02.810Z,6.45
2023-12-30T09:00:30.099Z,3.42
2023-12-30T09:02:57.450Z,9.20
2023-12-30T09:05:24.631Z,4.75
2023-12-30T09:07:52.660Z,5.82
2023-12-30T09:10:20.453Z,2.42
2023-12-30T09:12:47.917Z,4.43
2023-12-30T09:15:15.020Z,3.22
2023-12-30T09:17:42.426Z,6.95
2023-12-30T09:20:10.418Z,2.50
2023-12-30T09:22:37.584Z,2.35
2023-12-30T09:25:05.044Z,3.95
2023-12-30T09:27:32.288Z,4.80
2023-12-30T09:29:59.345Z,2.90
2023-12-30T09:32:26.540Z,2.30
2023-12-30T09:34:54.732Z,2.63
2023-12-30T09:37:22.054Z,2.85
2023-12-30T09:39:49.399Z,2.30
2023-12-30T09:42:17.365Z,3.80
2023-12-30T09:44:45.503Z,2.58
2023-12-30T09:47:12.813Z,3.05
2023-12-30T09:49:41.935Z,2.30
2023-12-30T09:52:09.178Z,2.83
2023-12-30T09:54:45.625Z,2.90
2023-12-30T09:57:16.888Z,1.95
2023-12-30T09:59:45.846Z,1.40
2023-12-30T10:02:13.310Z,2.00
2023-12-30T10:04:40.732Z,1.50
2023-12-30T10:07:08.819Z,2.92
2023-12-30T10:09:36.078Z,2.45
2023-12-30T10:12:03.410Z,2.13
2023-12-30T10:14:30.662Z,1.90
2023-12-30T10:16:57.792Z,2.80
2023-12-30T10:19:26.094Z,2.50
2023-12-30T10:21:53.227Z,1.40
2023-12-30T10:24:20.294Z,1.88
2023-12-30T10:26:48.358Z,1.55
2023-12-30T10:29:15.513Z,1.48
2023-12-30T10:31:43.484Z,3.38
2023-12-30T10:34:10.762Z,1.30
2023-12-30T10:36:38.427Z,2.53
2023-12-30T10:39:06.880Z,2.60
2023-12-30T10:41:34.043Z,3.33
2023-12-30T10:44:01.487Z,1.80
2023-12-30T10:46:29.020Z,1.48
2023-12-30T10:48:57.740Z,1.42
2023-12-30T10:51:27.288Z,1.80
2023-12-30T10:54:01.046Z,1.33
2023-12-30T10:56:41.039Z,2.05
2023-12-30T10:59:08.916Z,1.60
2023-12-30T11:01:37.656Z,1.58
2023-12-30T11:04:12.691Z,1.88
2023-12-30T11:06:49.470Z,1.80
2023-12-30T11:09:16.670Z,2.00
2023-12-30T11:11:54.016Z,2.25
2023-12-30T11:14:21.816Z,1.70
2023-12-30T11:16:51.861Z,1.73
2023-12-30T11:19:32.482Z,2.60
2023-12-30T11:22:02.342Z,2.03
2023-12-30T11:24:29.551Z,2.33
2023-12-30T11:26:57.161Z,1.60
2023-12-30T11:29:26.686Z,1.67
2023-12-30T11:31:55.721Z,2.45
2023-12-30T11:34:23.806Z,2.05
2023-12-30T11:36:53.175Z,2.70
2023-12-30T11:39:32.885Z,2.58
2023-12-30T11:42:01.556Z,3.10
2023-12-30T11:44:29.335Z,4.95
2023-12-30T11:46:57.670Z,7.53
2023-12-30T11:49:26.503Z,2.63
2023-12-30T11:52:04.380Z,2.13
2023-12-30T11:54:33.588Z,17.35
2023-12-30T11:57:01.072Z,8.32
2023-12-30T11:59:28.428Z,8.15
2023-12-30T12:02:07.822Z,2.70
2023-12-30T12:04:35.104Z,3.17
2023-12-30T12:07:02.488Z,3.78
2023-12-30T12:09:30.572Z,5.35
2023-12-30T12:11:57.901Z,2.45
2023-12-30T12:14:28.196Z,3.88
2023-12-30T12:16:55.400Z,1.65
2023-12-30T12:19:22.672Z,3.97
2023-12-30T12:21:49.802Z,3.70
2023-12-30T12:24:16.922Z,1.35
2023-12-30T12:26:44.611Z,1.60
2023-12-30T12:29:14.120Z,2.85
2023-12-30T12:31:45.513Z,2.45
2023-12-30T12:34:26.865Z,2.03
2023-12-30T12:36:54.904Z,2.17
2023-12-30T12:39:22.084Z,2.45
2023-12-30T12:41:49.777Z,2.25
2023-12-30T12:44:17.411Z,2.38
2023-12-30T12:46:44.647Z,3.10
2023-12-30T12:49:12.174Z,1.80
2023-12-30T12:51:40.778Z,2.53
2023-12-30T12:54:08.045Z,2.72
2023-12-30T12:56:35.555Z,1.52
2023-12-30T12:59:02.613Z,1.40
2023-12-30T13:01:30.294Z,1.83
2023-12-30T13:03:59.405Z,1.88
2023-12-30T13:06:26.692Z,1.50
2023-12-30T13:08:56.868Z,1.92
2023-12-30T13:11:28.833Z,1.40
2023-12-30T13:13:56.910Z,1.75
2023-12-30T13:16:25.477Z,2.42
2023-12-30T13:18:53.716Z,1.77
2023-12-30T13:21:20.988Z,5.95
2023-12-30T13:23:50.695Z,3.30
2023-12-30T13:26:19.862Z,3.22
2023-12-30T13:28:47.424Z,2.92
2023-12-30T13:31:19.119Z,2.13
2023-12-30T13:33:46.744Z,3.15
2023-12-30T13:36:13.961Z,4.07
2023-12-30T13:38:44.828Z,3.47
2023-12-30T13:41:12.306Z,2.97
2023-12-30T13:43:39.568Z,2.05
2023-12-30T13:46:32.831Z,3.00
2023-12-30T13:49:03.017Z,2.60
2023-12-30T13:51:30.219Z,2.35
2023-12-30T13:53:57.459Z,2.53
2023-12-30T13:56:26.391Z,2.47
2023-12-30T13:58:53.830Z,1.50
2023-12-30T14:01:23.669Z,2.95
2023-12-30T14:03:54.728Z,2.90
2023-12-30T14:06:29.555Z,2.80
2023-12-30T14:08:56.797Z,3.05
2023-12-30T14:11:34.791Z,2.60
2023-12-30T14:14:04.434Z,1.85
2023-12-30T14:16:32.373Z,2.20
2023-12-30T14:18:59.683Z,1.58
2023-12-30T14:21:26.959Z,3.25
2023-12-30T14:23:54.529Z,6.13
2023-12-30T14:26:21.902Z,1.92
2023-12-30T14:28:49.199Z,2.00
2023-12-30T14:31:16.894Z,1.95
2023-12-30T14:33:44.248Z,2.70
2023-12-30T14:36:12.325Z,2.80
2023-12-30T14:38:40.576Z,1.70
2023-12-30T14:41:07.748Z,2.38
2023-12-30T14:43:34.935Z,2.55
2023-12-30T14:46:02.526Z,2.30
2023-12-30T14:48:29.786Z,2.40
2023-12-30T14:50:56.938Z,1.45
2023-12-30T14:53:24.175Z,2.10
2023-12-30T14:55:51.765Z,2.15
2023-12-30T14:58:18.980Z,2.13
2023-12-30T15:00:47.620Z,2.85
2023-12-30T15:03:15.657Z,2.70
2023-12-30T15:05:43.519Z,2.75
2023-12-30T15:08:10.694Z,2.90
2023-12-30T15:10:37.892Z,2.92
2023-12-30T15:13:05.658Z,2.97
2023-12-30T15:15:33.022Z,3.25
2023-12-30T15:18:00.339Z,3.30
2023-12-30T15:20:28.185Z,3.85
2023-12-30T15:22:55.590Z,3.35
2023-12-30T15:25:23.604Z,8.45
2023-12-30T15:27:53.984Z,3.63
2023-12-30T15:30:23.621Z,3.15
2023-12-30T15:32:52.014Z,2.97
2023-12-30T15:35:19.633Z,7.13
2023-12-30T15:37:47.002Z,7.72
2023-12-30T15:40:14.362Z,6.50
2023-12-30T15:42:42.919Z,12.38
2023-12-30T15:45:10.542Z,10.48
2023-12-30T15:47:37.903Z,5.80
2023-12-30T15:50:05.697Z,6.47
2023-12-30T15:52:33.523Z,5.70
2023-12-30T15:55:01.164Z,5.43
2023-12-30T15:57:28.409Z,7.18
2023-12-30T15:59:55.671Z,4.85
2023-12-30T16:02:24.489Z,4.07
2023-12-30T16:04:53.575Z,6.57
2023-12-30T16:07:20.973Z,5.20
2023-12-30T16:09:49.461Z,4.25
2023-12-30T16:12:16.642Z,5.22
2023-12-30T16:14:45.922Z,4.43
2023-12-30T16:17:13.734Z,6.68
2023-12-30T16:19:41.388Z,3.80
2023-12-30T16:22:08.725Z,3.40
2023-12-30T16:24:36.152Z,3.90
2023-12-30T16:27:03.611Z,6.22
2023-12-30T16:29:30.948Z,5.07
2023-12-30T16:32:01.775Z,4.10
2023-12-30T16:34:29.063Z,4.73
2023-12-30T16:36:57.010Z,3.85
2023-12-30T16:39:24.825Z,4.85
2023-12-30T16:41:52.350Z,3.88
2023-12-30T16:44:19.536Z,4.65
2023-12-30T16:46:46.940Z,7.18
2023-12-30T16:49:14.214Z,7.30
2023-12-30T16:51:42.099Z,6.93
2023-12-30T16:54:13.903Z,7.95
2023-12-30T16:56:41.098Z,5.00
2023-12-30T16:59:09.567Z,5.20
2023-12-30T17:01:37.357Z,5.15
2023-12-30T17:04:05.056Z,3.60
2023-12-30T17:06:34.811Z,5.05
2023-12-30T17:09:04.683Z,4.75
2023-12-30T17:11:32.568Z,5.97
2023-12-30T17:14:00.125Z,6.00
2023-12-30T17:16:27.416Z,6.38
2023-12-30T17:18:54.597Z,7.20
2023-12-30T17:21:21.713Z,6.50
2023-12-30T17:23:49.005Z,6.68
2023-12-30T17:26:16.199Z,5.30
2023-12-30T17:28:43.386Z,5.00
2023-12-30T17:31:10.930Z,4.50
2023-12-30T17:33:38.643Z,5.35
2023-12-30T17:36:06.390Z,4.40
2023-12-30T17:38:33.567Z,4.47
2023-12-30T17:41:00.761Z,4.93
2023-12-30T17:43:27.989Z,4.43
2023-12-30T17:45:55.656Z,4.43
2023-12-30T17:48:22.845Z,6.07
2023-12-30T17:50:49.998Z,7.05
2023-12-30T17:53:17.103Z,8.48
2023-12-30T17:55:44.362Z,13.70
2023-12-30T17:58:11.764Z,14.73
2023-12-30T18:00:42.351Z,19.83
2023-12-30T18:03:09.753Z,11.20
2023-12-30T18:05:37.108Z,7.15
2023-12-30T18:08:05.151Z,7.05
2023-12-30T18:10:32.692Z,10.35
2023-12-30T18:13:00.592Z,5.63
2023-12-30T18:15:28.044Z,5.18
2023-12-30T18:17:55.345Z,3.60
2023-12-30T18:20:23.507Z,3.25
2023-12-30T18:22:50.949Z,4.15
2023-12-30T18:25:18.972Z,3.97
2023-12-30T18:27:50.100Z,4.20
2023-12-30T18:30:18.311Z,5.82
2023-12-30T18:32:45.648Z,5.15
2023-12-30T18:35:13.637Z,5.53
2023-12-30T18:37:42.713Z,3.95
2023-12-30T18:40:11.939Z,3.92
2023-12-30T18:42:39.480Z,3.45
2023-12-30T18:45:10.023Z,4.43
2023-12-30T18:47:37.395Z,5.13
2023-12-30T18:50:05.360Z,7.78
2023-12-30T18:52:35.808Z,11.95
2023-12-30T18:55:04.628Z,5.72
2023-12-30T18:57:31.948Z,7.97
2023-12-30T18:59:59.295Z,12.10
2023-12-30T19:02:26.825Z,9.68
2023-12-30T19:04:54.400Z,5.70
2023-12-30T19:07:22.330Z,4.20
2023-12-30T19:09:49.591Z,4.57
2023-12-30T19:12:21.642Z,4.82
2023-12-30T19:15:09.643Z,4.60
2023-12-30T19:17:38.812Z,4.90
2023-12-30T19:20:12.821Z,7.32
2023-12-30T19:22:40.050Z,6.07
2023-12-30T19:25:07.545Z,6.85
2023-12-30T19:27:34.834Z,5.32
2023-12-30T19:30:01.976Z,6.05
2023-12-30T19:32:29.163Z,6.10
2023-12-30T19:34:57.737Z,7.07
2023-12-30T19:37:25.185Z,5.40
2023-12-30T19:39:52.269Z,5.22
2023-12-30T19:42:19.546Z,5.45
2023-12-30T19:44:46.857Z,5.28
2023-12-30T19:47:14.242Z,5.47
2023-12-30T19:49:41.464Z,4.78
2023-12-30T19:52:08.753Z,4.65
2023-12-30T19:54:39.059Z,5.47
2023-12-30T19:57:06.447Z,4.82
2023-12-30T19:59:38.283Z,4.30
2023-12-30T20:02:05.504Z,5.03
2023-12-30T20:04:33.249Z,6.05
2023-12-30T20:07:00.580Z,7.45
2023-12-30T20:09:27.726Z,6.57
2023-12-30T20:11:54.873Z,6.93
2023-12-30T20:14:22.135Z,7.55
2023-12-30T20:16:50.475Z,6.53
2023-12-30T20:19:17.816Z,6.50
2023-12-30T20:21:45.142Z,7.10
2023-12-30T20:24:12.395Z,7.88
2023-12-30T20:26:40.150Z,8.70
2023-12-30T20:29:07.340Z,10.57
2023-12-30T20:31:34.776Z,10.07
2023-12-30T20:34:02.090Z,10.27
2023-12-30T20:36:29.326Z,10.25
2023-12-30T20:38:56.442Z,9.30
2023-12-30T20:41:23.534Z,9.10
2023-12-30T20:43:50.890Z,10.48
2023-12-30T20:46:19.207Z,10.40
2023-12-30T20:48:46.454Z,10.07
2023-12-30T20:51:13.963Z,9.45
2023-12-30T20:53:43.912Z,9.35
2023-12-30T20:56:11.096Z,8.45
2023-12-30T20:58:38.216Z,8.52
2023-12-30T21:01:05.532Z,9.15
2023-12-30T21:03:33.023Z,8.57
2023-12-30T21:06:00.264Z,9.13
2023-12-30T21:08:30.619Z,9.27
2023-12-30T21:10:57.879Z,8.82
2023-12-30T21:13:25.171Z,10.18
2023-12-30T21:15:52.288Z,10.98
2023-12-30T21:18:26.300Z,9.60
2023-12-30T21:20:56.620Z,9.25
2023-12-30T21:23:23.916Z,9.98
2023-12-30T21:25:52.280Z,10.30
2023-12-30T21:28:21.522Z,9.63
2023-12-30T21:30:50.122Z,10.10
2023-12-30T21:33:17.429Z,9.68
2023-12-30T21:35:44.959Z,10.68
2023-12-30T21:38:12.511Z,10.57
2023-12-30T21:40:39.860Z,10.98
2023-12-30T21:43:07.452Z,9.93
2023-12-30T21:45:34.955Z,11.93
2023-12-30T21:48:05.562Z,10.30
2023-12-30T21:50:33.475Z,9.88
2023-12-30T21:53:01.000Z,9.68
2023-12-30T21:55:28.464Z,8.98
2023-12-30T21:57:57.668Z,12.18
2023-12-30T22:00:25.101Z,11.73
2023-12-30T22:02:52.495Z,10.20
2023-12-30T22:05:22.144Z,11.13
2023-12-30T22:07:50.013Z,12.10
2023-12-30T22:10:17.418Z,10.73
2023-12-30T22:12:44.888Z,8.43
2023-12-30T22:15:12.096Z,11.07
2023-12-30T22:17:39.392Z,8.32
2023-12-30T22:20:07.333Z,9.57
2023-12-30T22:22:34.708Z,9.00
2023-12-30T22:25:05.197Z,10.13
2023-12-30T22:27:32.819Z,9.30
2023-12-30T22:30:02.310Z,10.18
2023-12-30T22:32:31.432Z,10.85
2023-12-30T22:35:04.413Z,13.23
2023-12-30T22:37:31.739Z,12.52
2023-12-30T22:39:59.787Z,9.57
2023-12-30T22:42:28.393Z,8.20
2023-12-30T22:44:55.576Z,7.53
2023-12-30T22:47:22.936Z,9.00
2023-12-30T22:49:50.882Z,8.02
2023-12-30T22:52:18.312Z,11.65
2023-12-30T22:54:45.534Z,10.60
2023-12-30T22:57:13.021Z,7.57
2023-12-30T22:59:40.389Z,8.13
2023-12-30T23:02:08.538Z,12.40
2023-12-30T23:04:35.939Z,7.50
2023-12-30T23:07:03.098Z,6.97
2023-12-30T23:09:33.909Z,8.45
2023-12-30T23:12:01.782Z,27.40
2023-12-30T23:14:29.043Z,27.45
2023-12-30T23:16:56.200Z,15.43
2023-12-30T23:19:23.861Z,8.38
2023-12-30T23:21:51.031Z,13.88
2023-12-30T23:24:18.525Z,15.50
2023-12-30T23:26:45.879Z,9.60
2023-12-30T23:29:13.103Z,9.00
2023-12-30T23:31:42.490Z,7.78
2023-12-30T23:34:09.857Z,9.73
2023-12-30T23:36:37.678Z,12.18
2023-12-30T23:39:05.622Z,7.90
2023-12-30T23:41:32.981Z,8.30
2023-12-30T23:44:00.096Z,7.03
2023-12-30T23:46:27.288Z,14.02
2023-12-30T23:48:55.726Z,6.90
2023-12-30T23:51:23.346Z,7.82
2023-12-30T23:53:50.624Z,16.45
2023-12-30T23:56:17.956Z,6.88
2023-12-30T23:58:45.282Z,10.23
